• Join FlightAware (Why Join?)
  • Login
  • US Flag 
03:32AM EDT


 

Airport Tracker/Info


-or-


 

Live Flight TrackerFlight Track Log ✈ EGF3046 ✈ 20-Jul-2013 ✈ KSYR - KORD

Flight Track Log - Related Links

Times and Time Zones

All times are in EDT time to prevent confusion due to time zone crossing. See the EGF3046 flight status page for this flight to view local times or setup timezone preferences in your user account.

Time Position Orientation Groundspeed Altitude Reporting Facility
EDT Latitude Longitude Course Direction KTS MPH feet Rate Location/Type
05:19PM 43.1172 -76.2208 280° West 193 222 3,500  Level Boston Center
05:20PM 43.1833 -76.4038 270° West  Level FlightAware Approximate
05:21PM 43.2005 -76.5031 281° West  Level FlightAware Approximate
05:21PM 43.1739 -76.3808 296° West 221 254 7,800  Level Cleveland Center
05:22PM 43.2160 -76.6120 281° West  Level FlightAware Approximate
05:22PM 43.2039 -76.4617 297° West 226 260 9,800  Level Cleveland Center
05:23PM 43.2386 -76.7186 286° West  Level FlightAware Approximate
05:23PM 43.2114 -76.5608 276° West 246 283 10,900  Level Cleveland Center
05:24PM 43.2069 -76.6750 267° West 273 314 11,900 1,080 Climbing Cleveland Center
05:25PM 43.2069 -76.8003 270° West 308 354 13,100 1,440 Climbing Cleveland Center
05:26PM 43.2050 -76.9317 269° West 326 375 14,800 1,620 Climbing Cleveland Center
05:27PM 43.2044 -77.0514 270° West 326 375 16,400 1,440 Climbing Cleveland Center
05:28PM 43.2019 -77.1739 268° West 326 375 17,700 1,440 Climbing Cleveland Center
05:29PM 43.2033 -77.2908 271° West 326 375 19,300 1,500 Climbing Cleveland Center
05:30PM 43.2025 -77.4133 270° West 326 375 20,800 1,500 Climbing Cleveland Center
05:31PM 43.2014 -77.5272 269° West 326 375 22,300 1,500 Climbing Cleveland Center
05:32PM 43.2003 -77.6411 269° West 320 368 23,800 1,440 Climbing Cleveland Center
05:33PM 43.1986 -77.7494 269° West 307 353 25,200 1,260 Climbing Cleveland Center
05:34PM 43.1972 -77.8606 269° West 296 341 26,400 1,200 Climbing Cleveland Center
05:35PM 43.1956 -77.9689 269° West 290 334 27,600 1,200 Climbing Cleveland Center
05:36PM 43.1958 -78.0772 270° West 290 334 28,800 1,200 Climbing Cleveland Center
05:37PM 43.1919 -78.1828 267° West 290 334 30,000 1,080 Climbing Cleveland Center
05:38PM 43.1919 -78.2908 270° West 290 334 31,000 1,020 Climbing Cleveland Center
05:39PM 43.1897 -78.3906 268° West 296 341 32,100 1,020 Climbing Cleveland Center
05:40PM 43.1878 -78.5047 269° West 296 341 33,100 960 Climbing Cleveland Center
05:41PM 43.1856 -78.6158 268° West 296 341 34,100 960 Climbing Cleveland Center
05:42PM 43.1831 -78.7242 268° West 290 334 35,100 900 Climbing Cleveland Center
05:43PM 43.1806 -78.8353 268° West 290 334 36,000 360 Climbing Cleveland Center
05:44PM 43.1667 -78.9667 262° West 300 345 36,000  Level Toronto Center
05:45PM 43.1667 -79.0833 270° West 320 368 36,000  Level Toronto Center
05:46PM 43.1667 -79.2167 270° West 340 391 36,000  Level Toronto Center
05:47PM 43.1500 -79.3333 259° West 360 414 36,000  Level Toronto Center
05:48PM 43.1500 -79.5000 270° West 370 426 36,000  Level Toronto Center
05:49PM 43.1500 -79.6333 270° West 370 426 36,000  Level Toronto Center
05:50PM 43.1500 -79.7667 270° West 360 414 36,000  Level Toronto Center
05:51PM 43.1500 -79.9000 270° West 360 414 36,000  Level Toronto Center
05:52PM 43.1333 -80.0500 261° West 360 414 36,000  Level Toronto Center
05:53PM 43.1333 -80.1833 270° West 360 414 36,000  Level Toronto Center
05:54PM 43.1333 -80.3167 270° West 360 414 36,000  Level Toronto Center
05:55PM 43.1333 -80.4500 270° West 360 414 36,000  Level Toronto Center
05:56PM 43.1167 -80.6000 261° West 360 414 36,000  Level Toronto Center
05:57PM 43.1167 -80.7333 270° West 360 414 36,000  Level Toronto Center
05:58PM 43.1000 -80.8667 260° West 360 414 36,000  Level Toronto Center
05:59PM 43.1000 -81.0000 270° West 360 414 36,000  Level Toronto Center
06:00PM 43.0833 -81.1333 260° West 360 414 36,000  Level Toronto Center
06:01PM 43.0833 -81.2833 270° West 360 414 36,000  Level Toronto Center
06:02PM 43.0833 -81.4167 270° West 360 414 36,000  Level Toronto Center
06:03PM 43.0833 -81.5333 270° West 360 414 36,000  Level Toronto Center
06:04PM 43.0667 -81.6667 260° West 360 414 36,000  Level Toronto Center
06:05PM 43.0667 -81.8000 270° West 350 403 36,000  Level Toronto Center
06:06PM 43.0500 -81.9333 260° West 350 403 36,000  Level Toronto Center
06:07PM 43.0500 -82.0667 270° West 350 403 36,000  Level Toronto Center
06:08PM 43.0333 -82.2167 261° West 350 403 36,000  Level Toronto Center
06:09PM 43.0333 -82.3500 270° West 350 403 36,000  Level Toronto Center
06:10PM 43.0333 -82.4833 270° West 350 403 36,000 -480 Level Toronto Center
06:11PM 43.0333 -82.6167 270° West 360 414 35,100 -960 Descending Toronto Center
06:12PM 43.0167 -82.7500 260° West 360 414 34,100 -1,020 Descending Toronto Center
06:13PM 43.0000 -82.9000 261° West 360 414 33,100 -1,020 Descending Toronto Center
06:14PM 43.0000 -83.0333 270° West 370 426 32,100 -600 Descending Toronto Center
06:15PM 43.0000 -83.1667 270° West 370 426 32,000 -60 Descending Toronto Center
06:16PM 42.9833 -83.3333 262° West 380 437 32,000  Level Toronto Center
06:17PM 42.9667 -83.4667 260° West 380 437 32,000  Level Toronto Center
06:18PM 42.9667 -83.6000 270° West 370 426 32,000  Level Toronto Center
06:19PM 42.9500 -83.7333 260° West 370 426 32,000  Level Toronto Center
06:20PM 42.9333 -83.8667 260° West 380 437 32,000  Level Toronto Center
06:21PM 42.9333 -84.0333 270° West 380 437 32,000  Level Toronto Center
06:23PM 42.9231 -84.2019 265° West 391 450 32,000  Level Chicago Center
06:24PM 42.9058 -84.3764 262° West 389 448 32,000  Level Chicago Center
06:25PM 42.8908 -84.5192 262° West 384 442 32,000  Level Chicago Center
06:26PM 42.8761 -84.6631 262° West 383 441 32,000  Level Chicago Center
06:27PM 42.8611 -84.8069 262° West 385 443 32,000  Level Chicago Center
06:28PM 42.8464 -84.9508 262° West 385 443 32,000  Level Chicago Center
06:29PM 42.8314 -85.0942 262° West 382 440 32,000 -240 Level Chicago Center
06:30PM 42.8147 -85.2375 261° West 383 441 31,600 -960 Descending Chicago Center
06:31PM 42.7992 -85.3808 262° West 383 441 30,100 -1,560 Descending Chicago Center
06:32PM 42.7775 -85.5589 261° West 393 452 28,400 -1,620 Descending Chicago Center
06:33PM 42.7492 -85.7083 256° West 404 465 26,800 -1,560 Descending Chicago Center
06:34PM 42.7231 -85.8519 256° West 392 451 25,300 -1,620 Descending Chicago Center
06:35PM 42.6972 -85.9925 256° West 382 440 23,600 -1,920 Descending Chicago Center
06:36PM 42.6728 -86.1292 256° West 372 428 21,400 -1,980 Descending Chicago Center
06:37PM 42.6481 -86.2606 256° West 360 414 19,600 -1,620 Descending Chicago Center
06:38PM 42.6233 -86.3897 255° West 354 407 18,100 -1,560 Descending Chicago Center
06:39PM 42.5989 -86.5183 256° West 352 405 16,500 -1,560 Descending Chicago Center
06:40PM 42.5744 -86.6489 256° West 357 411 14,900 -1,680 Descending Chicago Center
06:41PM 42.5422 -86.8042 254° West 357 411 13,100 -1,680 Descending Chicago Center
06:42PM 42.5056 -86.9275 248° West 355 409 11,500 -1,560 Descending Chicago Center
06:43PM 42.4725 -87.0506 250° West 349 402 10,000 -780 Descending Chicago Center
06:44PM 42.4389 -87.1708 249° West 345 397 10,000 -420 Level Chicago Center
06:45PM 42.4108 -87.2742 250° West 292 336 9,200 -540 Descending Chicago Center
06:46PM 42.3619 -87.3411 225° Southwest 288 331 9,000 -840 Descending Chicago Center
06:47PM 42.2831 -87.3867 203° Southwest 277 319 7,600 -1,380 Descending Chicago Center
06:48PM 42.2275 -87.4561 223° Southwest 274 315 6,200 -1,500 Descending Chicago Center
06:49PM 42.1753 -87.5233 224° Southwest 265 305 4,600 -1,080 Descending Chicago Center
06:50PM 42.1231 -87.5883 223° Southwest 259 298 4,000 -300 Descending Chicago Center
06:51PM 42.0525 -87.6550 215° Southwest 259 298 4,000  Level Chicago Center